Temp: 14.0°C   Baro: 1027.2mb
  Wind: 0.0mph   Dir: W (281°)
  Rain: 0.0mm (0.0mm/hr)
  Solar: 0W/m2  Hum: 84%
 
Bath Spa Weather Station Historical Data
Daily Summary for April 14, 2021 Units:  English    Metric   Both
Daily Weekly Monthly Yearly Custom
  High: Low: Average:
Temperature: 56.6 °F 37 °F 46.7 °F
Dew Point: 42.8 °F 33.1 °F 37.6 °F
Humidity: 92% 49.6% 70%
Wind Speed: 10.2mph 0mph 2.3mph
Wind Gust: 16mph - -
Wind- - East
Pressure: 30.51 in 30.45 in -
Precipitation: 0.00 in    
Historical Graphs
 
 
Tabular Data for April 14, 2021
Time Temperature Dew Point Pressure Wind Wind Speed Wind Gust Humidity Rainfall Rate (Hourly) solar
00:04 43.2 °F 39.6 °F 30.48 in Calm     84% 0.00 in 0 W/m2
00:09 43 °F 39.4 °F 30.48 in Calm     84% 0.00 in 0 W/m2
00:14 43 °F 39.4 °F 30.48 in Calm     84% 0.00 in 0 W/m2
00:19 42.9 °F 39.3 °F 30.48 in Calm     84% 0.00 in 0 W/m2
00:24 42.8 °F 39.2 °F 30.48 in Calm     84% 0.00 in 0 W/m2
00:29 42.8 °F 39.5 °F 30.48 in Calm     84.8% 0.00 in 0 W/m2
00:34 42.6 °F 39.4 °F 30.48 in Calm     85% 0.00 in 0 W/m2
00:39 42.6 °F 39.4 °F 30.48 in Calm     85% 0.00 in 0 W/m2
00:44 42.5 °F 39.3 °F 30.48 in Calm     85% 0.00 in 0 W/m2
00:49 42.4 °F 39.2 °F 30.48 in Calm     85% 0.00 in 0 W/m2
00:54 42.3 °F 39 °F 30.48 in Calm     85% 0.00 in 0 W/m2
00:59 42.3 °F 39 °F 30.48 in Calm     85.2% 0.00 in 0 W/m2
01:04 42.2 °F 39 °F 30.48 in Calm     85.8% 0.00 in 0 W/m2
01:09 41.9 °F 38.7 °F 30.48 in Calm     85.2% 0.00 in 0 W/m2
01:14 41.7 °F 38.7 °F 30.48 in Calm     86% 0.00 in 0 W/m2
01:19 41.5 °F 38.5 °F 30.48 in Calm     86% 0.00 in 0 W/m2
01:24 41.5 °F 38.5 °F 30.48 in Calm     86% 0.00 in 0 W/m2
01:29 41.5 °F 38.5 °F 30.48 in Calm     86% 0.00 in 0 W/m2
01:34 41.5 °F 38.7 °F 30.47 in Calm     86.8% 0.00 in 0 W/m2
01:39 41.5 °F 38.8 °F 30.47 in Calm     87% 0.00 in 0 W/m2
01:44 41.5 °F 38.8 °F 30.47 in Calm     87% 0.00 in 0 W/m2
01:49 41.5 °F 38.8 °F 30.47 in Calm     87% 0.00 in 0 W/m2
01:54 41.4 °F 38.7 °F 30.47 in Calm     87% 0.00 in 0 W/m2
01:59 41.1 °F 38.4 °F 30.47 in Calm     87% 0.00 in 0 W/m2
02:04 40.8 °F 38.1 °F 30.47 in Calm     87% 0.00 in 0 W/m2
02:09 40.6 °F 37.9 °F 30.47 in Calm     87% 0.00 in 0 W/m2
02:14 40.6 °F 37.9 °F 30.47 in Calm     87% 0.00 in 0 W/m2
02:19 40.5 °F 37.8 °F 30.47 in Calm     87% 0.00 in 0 W/m2
02:24 40.3 °F 37.6 °F 30.47 in Calm     87% 0.00 in 0 W/m2
02:29 40.2 °F 37.9 °F 30.47 in Calm     88% 0.00 in 0 W/m2
02:34 40 °F 37.7 °F 30.47 in Calm     88% 0.00 in 0 W/m2
02:38 39.8 °F 37.6 °F 30.47 in Calm     88% 0.00 in 0 W/m2
02:44 39.7 °F 37.4 °F 30.47 in Calm     88% 0.00 in 0 W/m2
02:49 39.6 °F 37.2 °F 30.47 in Calm     88% 0.00 in 0 W/m2
02:54 39.6 °F 37.2 °F 30.47 in Calm     88% 0.00 in 0 W/m2
02:59 39.4 °F 37 °F 30.47 in Calm     88% 0.00 in 0 W/m2
03:04 39.1 °F 36.8 °F 30.47 in Calm     88% 0.00 in 0 W/m2
03:09 39 °F 36.7 °F 30.47 in Calm     88.2% 0.00 in 0 W/m2
03:14 39 °F 36.7 °F 30.47 in Calm     88.2% 0.00 in 0 W/m2
03:19 38.9 °F 36.8 °F 30.48 in Calm     89% 0.00 in 0 W/m2
03:24 38.8 °F 36.7 °F 30.48 in Calm     89% 0.00 in 0 W/m2
03:29 38.7 °F 36.5 °F 30.48 in Calm     89% 0.00 in 0 W/m2
03:34 38.5 °F 36.5 °F 30.48 in Calm     89% 0.00 in 0 W/m2
03:39 38.5 °F 36.5 °F 30.48 in Calm     89% 0.00 in 0 W/m2
03:44 38.1 °F 36.1 °F 30.48 in Calm     89% 0.00 in 0 W/m2
03:49 38.1 °F 36.1 °F 30.48 in Calm     89% 0.00 in 0 W/m2
03:54 38.1 °F 36.1 °F 30.48 in WNW 1.6 mph 3 mph 89% 0.00 in 0 W/m2
03:59 38.1 °F 36.1 °F 30.48 in WNW 0.2 mph 2 mph 89% 0.00 in 0 W/m2
04:04 37.9 °F 36 °F 30.48 in Calm     89% 0.00 in 0 W/m2
04:09 37.9 °F 36 °F 30.48 in Calm     89% 0.00 in 0 W/m2
04:14 37.8 °F 35.9 °F 30.47 in Calm     89% 0.00 in 0 W/m2
04:19 37.4 °F 35.4 °F 30.47 in Calm     89% 0.00 in 0 W/m2
04:24 37.1 °F 35.2 °F 30.47 in Calm     89% 0.00 in 0 W/m2
04:29 37 °F 35.2 °F 30.47 in Calm     89.4% 0.00 in 0 W/m2
04:34 37 °F 35.2 °F 30.47 in Calm     90% 0.00 in 0 W/m2
04:39 37 °F 35.2 °F 30.47 in Calm     90% 0.00 in 0 W/m2
04:44 37 °F 35.2 °F 30.47 in Calm     90% 0.00 in 0 W/m2
04:49 37.1 °F 35.3 °F 30.47 in Calm     90% 0.00 in 0 W/m2
04:54 37.2 °F 35.4 °F 30.47 in Calm     90% 0.00 in 0 W/m2
04:59 37.2 °F 35.4 °F 30.47 in Calm     90% 0.00 in 0 W/m2
05:04 37.2 °F 35.4 °F 30.47 in Calm     90% 0.00 in 0 W/m2
05:09 37.5 °F 35.7 °F 30.47 in Calm     90% 0.00 in 0 W/m2
05:14 37.6 °F 35.8 °F 30.47 in Calm     90% 0.00 in 0 W/m2
05:19 37.6 °F 35.8 °F 30.47 in Calm     90% 0.00 in 0 W/m2
05:24 37.6 °F 35.8 °F 30.47 in Calm     90% 0.00 in 0 W/m2
05:29 37.6 °F 35.8 °F 30.47 in Calm   2 mph 90% 0.00 in 0 W/m2
05:34 37.6 °F 35.8 °F 30.47 in Calm     90% 0.00 in 0 W/m2
05:39 37.6 °F 35.8 °F 30.47 in Calm     90% 0.00 in 0 W/m2
05:44 37.6 °F 35.8 °F 30.47 in Calm     90% 0.00 in 0 W/m2
05:49 37.6 °F 35.8 °F 30.47 in Calm   1 mph 90% 0.00 in 0 W/m2
05:54 37.7 °F 35.9 °F 30.47 in Calm   1 mph 90% 0.00 in 0 W/m2
05:59 37.8 °F 36 °F 30.47 in Calm     90% 0.00 in 0 W/m2
06:04 37.8 °F 36 °F 30.47 in Calm     90% 0.00 in 0 W/m2
06:09 37.9 °F 36.4 °F 30.47 in Calm     90.8% 0.00 in 0 W/m2
06:14 37.9 °F 36.1 °F 30.47 in Calm     90% 0.00 in 0 W/m2
06:19 37.9 °F 36.3 °F 30.48 in Calm     90.6% 0.00 in 0 W/m2
06:24 37.9 °F 36.4 °F 30.48 in Calm     90.8% 0.00 in 5 W/m2
06:29 37.9 °F 36.5 °F 30.48 in Calm     91% 0.00 in 7 W/m2
06:34 37.9 °F 36.4 °F 30.48 in Calm     91% 0.00 in 9 W/m2
06:39 37.9 °F 36.5 °F 30.48 in Calm     91% 0.00 in 12 W/m2
06:44 37.9 °F 36.5 °F 30.48 in Calm     91% 0.00 in 16 W/m2
06:49 37.9 °F 36.5 °F 30.48 in Calm     91% 0.00 in 19 W/m2
06:54 38.1 °F 36.7 °F 30.48 in Calm     91% 0.00 in 26 W/m2
06:59 38 °F 36.6 °F 30.48 in Calm     91% 0.00 in 30 W/m2
07:04 37.9 °F 36.5 °F 30.49 in Calm     91% 0.00 in 35 W/m2
07:08 38.1 °F 36.7 °F 30.49 in Calm     91% 0.00 in 39 W/m2
07:14 37.9 °F 36.5 °F 30.49 in Calm     91% 0.00 in 40 W/m2
07:19 37.9 °F 36.5 °F 30.49 in Calm     91% 0.00 in 44 W/m2
07:24 37.9 °F 36.5 °F 30.49 in Calm     91% 0.00 in 47 W/m2
07:29 37.9 °F 36.5 °F 30.49 in Calm     91% 0.00 in 56 W/m2
07:34 37.8 °F 36.4 °F 30.50 in Calm     91% 0.00 in 65 W/m2
07:39 37.8 °F 36.3 °F 30.50 in Calm     91% 0.00 in 76 W/m2
07:44 37.8 °F 36.3 °F 30.50 in Calm     91% 0.00 in 88 W/m2
07:49 37.8 °F 36.3 °F 30.50 in Calm     91.2% 0.00 in 100 W/m2
07:54 38 °F 36.8 °F 30.50 in Calm     92% 0.00 in 128 W/m2
07:59 38.4 °F 37.1 °F 30.50 in Calm     92% 0.00 in 171 W/m2
08:04 38.8 °F 37.5 °F 30.50 in Calm     92% 0.00 in 195 W/m2
08:09 39.1 °F 37.8 °F 30.50 in Calm     92% 0.00 in 209 W/m2
08:14 39.2 °F 37.9 °F 30.50 in Calm     92% 0.00 in 206 W/m2
08:19 39.5 °F 38.3 °F 30.50 in Calm     92% 0.00 in 223 W/m2
08:24 40 °F 38.8 °F 30.50 in WNW 0.2 mph 2 mph 92% 0.00 in 220 W/m2
08:29 40.4 °F 39 °F 30.50 in Calm   2 mph 91.8% 0.00 in 227 W/m2
08:34 40.7 °F 39.2 °F 30.50 in Calm   1 mph 91.2% 0.00 in 220 W/m2
08:39 40.9 °F 39.3 °F 30.50 in Calm     91% 0.00 in 93 W/m2
08:44 41.2 °F 39.6 °F 30.50 in Calm     91% 0.00 in 176 W/m2
08:49 41.5 °F 39.8 °F 30.50 in Calm     90.8% 0.00 in 151 W/m2
08:54 42.2 °F 40.4 °F 30.50 in Calm     90% 0.00 in 281 W/m2
08:59 43.2 °F 41.2 °F 30.49 in Calm     89.6% 0.00 in 292 W/m2
09:04 43.3 °F 41 °F 30.49 in Calm     88.2% 0.00 in 315 W/m2
09:09 43.7 °F 41.1 °F 30.50 in WNW 0.2 mph 1 mph 87.2% 0.00 in 343 W/m2
09:14 44.4 °F 41.3 °F 30.49 in Calm   1 mph 86% 0.00 in 362 W/m2
09:19 44.4 °F 40.9 °F 30.50 in Calm   1 mph 84.6% 0.00 in 371 W/m2
09:24 44.8 °F 41.2 °F 30.50 in Calm     84% 0.00 in 387 W/m2
09:29 45.5 °F 41.6 °F 30.50 in Calm     83% 0.00 in 390 W/m2
09:34 45.7 °F 41.4 °F 30.50 in WNW 0.8 mph 3 mph 82% 0.00 in 415 W/m2
09:39 46.4 °F 41.8 °F 30.50 in WNW 1.4 mph 3 mph 81% 0.00 in 429 W/m2
09:44 47 °F 41.9 °F 30.50 in WNW 1 mph 3 mph 79.6% 0.00 in 446 W/m2
09:49 46.9 °F 41.6 °F 30.50 in WNW 0.5 mph 3 mph 78.8% 0.00 in 459 W/m2
09:54 47.7 °F 42.3 °F 30.50 in WNW 1.6 mph 4 mph 78.4% 0.00 in 473 W/m2
09:59 48.3 °F 42.4 °F 30.50 in WNW 2 mph 5 mph 77.2% 0.00 in 482 W/m2
10:04 49.6 °F 42.7 °F 30.50 in WNW 2.5 mph 6 mph 74.4% 0.00 in 494 W/m2
10:09 49.8 °F 42.5 °F 30.50 in SW 2.8 mph 6 mph 73% 0.00 in 503 W/m2
10:14 51.2 °F 42.8 °F 30.50 in SSW 3.3 mph 7 mph 70.6% 0.00 in 517 W/m2
10:19 51.4 °F 42.1 °F 30.50 in SSW 2.5 mph 7 mph 68.2% 0.00 in 529 W/m2
10:24 51.4 °F 41.2 °F 30.50 in South 3.8 mph 11 mph 65.4% 0.00 in 536 W/m2
10:29 51.5 °F 40.3 °F 30.50 in SE 4.7 mph 11 mph 63.6% 0.00 in 554 W/m2
10:34 52.3 °F 40.6 °F 30.50 in ESE 6.2 mph 11 mph 62.2% 0.00 in 561 W/m2
10:39 52.2 °F 40.3 °F 30.50 in ESE 5 mph 11 mph 61.8% 0.00 in 571 W/m2
10:44 52.3 °F 40.1 °F 30.50 in ESE 5.8 mph 11 mph 61% 0.00 in 582 W/m2
10:49 52.5 °F 38.8 °F 30.50 in East 10.2 mph 12 mph 57.6% 0.00 in 596 W/m2
10:54 52.8 °F 39.1 °F 30.50 in East 5.3 mph 13 mph 57.6% 0.00 in 606 W/m2
10:59 52.5 °F 38.4 °F 30.50 in ENE 7.5 mph 14 mph 56.6% 0.00 in 619 W/m2
11:04 52.7 °F 37.7 °F 30.50 in ESE 5.9 mph 13 mph 54.6% 0.00 in 645 W/m2
11:09 53.8 °F 38 °F 30.50 in East 3.9 mph 8 mph 53.2% 0.00 in 663 W/m2
11:14 54.1 °F 38.1 °F 30.50 in East 3 mph 10 mph 52.8% 0.00 in 671 W/m2
11:19 54.1 °F 38.4 °F 30.50 in ESE 3.7 mph 7 mph 53.4% 0.00 in 689 W/m2
11:24 54.5 °F 38.4 °F 30.49 in East 3.7 mph 12 mph 52.8% 0.00 in 712 W/m2
11:29 55.2 °F 38.8 °F 30.50 in ENE 4.9 mph 10 mph 52.4% 0.00 in 721 W/m2
11:34 55.4 °F 38.9 °F 30.49 in East 2.8 mph 8 mph 52% 0.00 in 731 W/m2
11:39 55.7 °F 38.6 °F 30.49 in ESE 4.2 mph 10 mph 51% 0.00 in 728 W/m2
11:44 54.4 °F 37.8 °F 30.49 in SE 3.7 mph 12 mph 51.6% 0.00 in 712 W/m2
11:49 54.6 °F 37.5 °F 30.49 in ESE 3.7 mph 10 mph 50.6% 0.00 in 700 W/m2
11:54 55.1 °F 38.3 °F 30.49 in East 4.5 mph 10 mph 51.2% 0.00 in 701 W/m2
11:59 55.4 °F 38.3 °F 30.49 in ESE 5.8 mph 8 mph 50.8% 0.00 in 703 W/m2
12:04 55.2 °F 38.1 °F 30.49 in ENE 4.4 mph 10 mph 50.8% 0.00 in 707 W/m2
12:09 55.5 °F 38.6 °F 30.49 in NE 4 mph 11 mph 51.2% 0.00 in 722 W/m2
12:14 55.9 °F 38.3 °F 30.49 in NE 3.1 mph 11 mph 49.8% 0.00 in 721 W/m2
12:19 56.6 °F 38.8 °F 30.49 in ESE 2.2 mph 8 mph 49.8% 0.00 in 775 W/m2
12:24 56.2 °F 38.4 °F 30.49 in SE 3.5 mph 10 mph 49.6% 0.00 in 800 W/m2
12:29 55.6 °F 38.4 °F 30.48 in ESE 4.1 mph 8 mph 50.6% 0.00 in 814 W/m2
12:34 55.2 °F 38.3 °F 30.48 in NE 5.3 mph 9 mph 51% 0.00 in 870 W/m2
12:39 54.3 °F 37.6 °F 30.48 in NNE 3.1 mph 9 mph 51.6% 0.00 in 905 W/m2
12:44 54.4 °F 38.1 °F 30.48 in SE 4.1 mph 8 mph 52.2% 0.00 in 905 W/m2
12:49 55.5 °F 38.5 °F 30.48 in East 2.8 mph 9 mph 51% 0.00 in 494 W/m2
12:54 55.6 °F 38.7 °F 30.48 in ENE 1.8 mph 7 mph 51.2% 0.00 in 320 W/m2
12:59 55 °F 37.9 °F 30.48 in SE 6.4 mph 10 mph 50.8% 0.00 in 287 W/m2
13:04 54.3 °F 38.4 °F 30.48 in East 4 mph 9 mph 53% 0.00 in 258 W/m2
13:09 55 °F 38.5 °F 30.48 in East 1 mph 7 mph 52% 0.00 in 211 W/m2
13:14 54.8 °F 37.9 °F 30.48 in East 1.6 mph 5 mph 51% 0.00 in 163 W/m2
13:19 53.9 °F 37.9 °F 30.48 in East 3.3 mph 5 mph 52.8% 0.00 in 130 W/m2
13:24 54 °F 38.5 °F 30.48 in NE 1.8 mph 9 mph 54% 0.00 in 156 W/m2
13:29 54 °F 38.4 °F 30.48 in NE 3.6 mph 7 mph 53.8% 0.00 in 197 W/m2
13:34 53.3 °F 38.2 °F 30.48 in NNE 3 mph 7 mph 54.6% 0.00 in 200 W/m2
13:39 53.4 °F 38.5 °F 30.48 in NNE 2.5 mph 7 mph 55% 0.00 in 227 W/m2
13:44 53.3 °F 38.5 °F 30.48 in NNE 4.1 mph 8 mph 55.2% 0.00 in 264 W/m2
13:49 53.2 °F 38.8 °F 30.48 in NNE 5.3 mph 9 mph 56% 0.00 in 279 W/m2
13:54 52.9 °F 38.5 °F 30.48 in NNE 4.1 mph 9 mph 56% 0.00 in 274 W/m2
13:59 52.9 °F 38.7 °F 30.48 in NNE 5.8 mph 8 mph 56.8% 0.00 in 265 W/m2
14:04 53.1 °F 39 °F 30.48 in NNE 2.4 mph 9 mph 57% 0.00 in 294 W/m2
14:09 53.6 °F 38.9 °F 30.48 in NNE 4.1 mph 7 mph 55.4% 0.00 in 313 W/m2
14:13 53.6 °F 38.9 °F 30.48 in NE 4.4 mph 9 mph 55.5% 0.00 in 374 W/m2
14:19 53.5 °F 39 °F 30.48 in NNE 3.6 mph 9 mph 55.8% 0.00 in 392 W/m2
14:24 54.6 °F 39.4 °F 30.48 in NNE 3.2 mph 6 mph 54.4% 0.00 in 768 W/m2
14:29 54.9 °F 39.1 °F 30.48 in NNE 2.1 mph 6 mph 53.4% 0.00 in 962 W/m2
14:34 55 °F 39.6 °F 30.48 in NNE 2.9 mph 7 mph 54% 0.00 in 320 W/m2
14:39 54.7 °F 39 °F 30.48 in NE 4.2 mph 12 mph 53.6% 0.00 in 283 W/m2
14:44 54.7 °F 39.1 °F 30.48 in NE 5.4 mph 10 mph 53.8% 0.00 in 313 W/m2
14:49 53.9 °F 38.4 °F 30.48 in North 4.2 mph 9 mph 54% 0.00 in 348 W/m2
14:54 54.1 °F 39.2 °F 30.48 in NNE 4.5 mph 8 mph 55.2% 0.00 in 359 W/m2
14:59 54.3 °F 38.7 °F 30.48 in NE 5.7 mph 11 mph 53.6% 0.00 in 341 W/m2
15:04 54.3 °F 38.9 °F 30.48 in ENE 4.6 mph 9 mph 54.2% 0.00 in 299 W/m2
15:09 54.8 °F 38.8 °F 30.47 in ENE 3.2 mph 8 mph 53% 0.00 in 278 W/m2
15:14 54.9 °F 38.8 °F 30.47 in ENE 6 mph 10 mph 52.8% 0.00 in 278 W/m2
15:19 54 °F 38.3 °F 30.47 in NNE 5.6 mph 10 mph 53.4% 0.00 in 288 W/m2
15:24 53.5 °F 38.6 °F 30.47 in NNE 5.2 mph 10 mph 55% 0.00 in 308 W/m2
15:29 53.6 °F 38.9 °F 30.47 in ENE 5 mph 10 mph 55.6% 0.00 in 383 W/m2
15:34 54.5 °F 39.2 °F 30.47 in NE 4.9 mph 10 mph 54.4% 0.00 in 446 W/m2
15:39 54.7 °F 39.3 °F 30.47 in NE 5 mph 14 mph 54.2% 0.00 in 489 W/m2
15:44 54.6 °F 39 °F 30.47 in ENE 5.7 mph 14 mph 53.8% 0.00 in 427 W/m2
15:49 55.3 °F 39.6 °F 30.47 in ENE 2.9 mph 11 mph 53.6% 0.00 in 464 W/m2
15:54 55.8 °F 39.7 °F 30.47 in NE 6.8 mph 11 mph 53% 0.00 in 550 W/m2
15:59 54.8 °F 39.1 °F 30.47 in NNE 6.1 mph 9 mph 53.6% 0.00 in 689 W/m2
16:04 54.7 °F 39.5 °F 30.47 in NE 6.7 mph 10 mph 54.6% 0.00 in 329 W/m2
16:09 54.5 °F 39.2 °F 30.46 in NE 5.9 mph 15 mph 54.4% 0.00 in 318 W/m2
16:14 54.3 °F 39.2 °F 30.46 in NE 7 mph 13 mph 54.6% 0.00 in 341 W/m2
16:19 54.5 °F 39.6 °F 30.46 in NE 3.2 mph 11 mph 55% 0.00 in 369 W/m2
16:24 55 °F 39.4 °F 30.46 in ENE 3.3 mph 9 mph 53.8% 0.00 in 431 W/m2
16:29 55.1 °F 39.4 °F 30.46 in NNE 5.6 mph 11 mph 53.8% 0.00 in 422 W/m2
16:34 54.9 °F 39.2 °F 30.46 in NE 4.8 mph 11 mph 53.6% 0.00 in 267 W/m2
16:39 54.6 °F 39 °F 30.46 in NE 6 mph 11 mph 53.8% 0.00 in 211 W/m2
16:44 54.4 °F 39.4 °F 30.46 in East 3.1 mph 10 mph 54.8% 0.00 in 186 W/m2
16:49 54.4 °F 39.6 °F 30.46 in East 1 mph 10 mph 55.4% 0.00 in 209 W/m2
16:54 54.7 °F 39.7 °F 30.46 in ENE 3 mph 9 mph 55% 0.00 in 357 W/m2
16:59 54.7 °F 39.7 °F 30.46 in ENE 4.6 mph 9 mph 55% 0.00 in 357 W/m2
17:04 54.4 °F 39.5 °F 30.46 in NNE 3.8 mph 8 mph 55% 0.00 in 274 W/m2
17:09 54.1 °F 39.4 °F 30.46 in NE 3.9 mph 7 mph 55.4% 0.00 in 262 W/m2
17:14 54.1 °F 39.4 °F 30.45 in NE 3.6 mph 7 mph 55.4% 0.00 in 352 W/m2
17:19 54.3 °F 39.5 °F 30.45 in East 4.5 mph 9 mph 55.4% 0.00 in 241 W/m2
17:24 54.5 °F 39.3 °F 30.45 in ENE 2 mph 9 mph 54.6% 0.00 in 195 W/m2
17:29 54.5 °F 38.9 °F 30.45 in ENE 6.7 mph 10 mph 53.8% 0.00 in 176 W/m2
17:34 54.1 °F 37.8 °F 30.45 in NE 7 mph 16 mph 52.2% 0.00 in 185 W/m2
17:39 53.6 °F 37.3 °F 30.45 in ENE 8.2 mph 15 mph 52.2% 0.00 in 185 W/m2
17:44 53.2 °F 36.8 °F 30.45 in NE 8 mph 13 mph 52% 0.00 in 204 W/m2
17:49 53.1 °F 36.9 °F 30.45 in ENE 5.7 mph 11 mph 52.4% 0.00 in 149 W/m2
17:54 53.1 °F 36.9 °F 30.45 in East 5.6 mph 12 mph 52.2% 0.00 in 132 W/m2
17:59 53.1 °F 36.7 °F 30.45 in NE 6.8 mph 13 mph 52% 0.00 in 125 W/m2
18:04 52.8 °F 36.5 °F 30.45 in NE 4.9 mph 11 mph 52.2% 0.00 in 116 W/m2
18:09 53 °F 37.1 °F 30.45 in East 3.9 mph 8 mph 53% 0.00 in 271 W/m2
18:14 53.1 °F 36.9 °F 30.45 in East 3.5 mph 9 mph 52.4% 0.00 in 260 W/m2
18:19 53.2 °F 36.9 °F 30.45 in East 4 mph 9 mph 52% 0.00 in 246 W/m2
18:24 53.6 °F 37.5 °F 30.45 in ESE 2.6 mph 7 mph 52.4% 0.00 in 225 W/m2
18:29 53.8 °F 37.3 °F 30.45 in East 2.1 mph 10 mph 51.8% 0.00 in 218 W/m2
18:34 54.1 °F 37.3 °F 30.45 in East 4.4 mph 10 mph 51.2% 0.00 in 197 W/m2
18:39 53.8 °F 36.4 °F 30.45 in ESE 3.9 mph 11 mph 50.2% 0.00 in 178 W/m2
18:44 53.2 °F 36.5 °F 30.45 in ESE 2.7 mph 8 mph 51.2% 0.00 in 158 W/m2
18:49 53.2 °F 36.8 °F 30.45 in ESE 4.7 mph 7 mph 51.8% 0.00 in 142 W/m2
18:54 53.1 °F 36.6 °F 30.45 in ESE 4.9 mph 8 mph 51.6% 0.00 in 125 W/m2
18:59 53.2 °F 36.7 °F 30.45 in East 1.7 mph 7 mph 51.6% 0.00 in 113 W/m2
19:04 53.7 °F 37 °F 30.45 in ESE 2.5 mph 5 mph 51.4% 0.00 in 98 W/m2
19:09 54 °F 36.5 °F 30.45 in ENE 4.7 mph 8 mph 50% 0.00 in 88 W/m2
19:14 53.8 °F 36.3 °F 30.45 in ENE 1.7 mph 8 mph 50% 0.00 in 76 W/m2
19:19 53.9 °F 36.4 °F 30.45 in ENE 3.7 mph 7 mph 50% 0.00 in 69 W/m2
19:24 53.6 °F 36.4 °F 30.45 in East 4.8 mph 11 mph 50.4% 0.00 in 54 W/m2
19:29 52.9 °F 36.3 °F 30.45 in East 5.8 mph 12 mph 51.4% 0.00 in 37 W/m2
19:34 52.3 °F 36.3 °F 30.45 in East 7.2 mph 11 mph 52.8% 0.00 in 25 W/m2
19:39 51.9 °F 36.1 °F 30.46 in East 2.7 mph 11 mph 53% 0.00 in 21 W/m2
19:44 51.6 °F 36.3 °F 30.46 in ENE 2.1 mph 7 mph 54% 0.00 in 19 W/m2
19:49 51.4 °F 36 °F 30.46 in ENE 6.2 mph 10 mph 53.8% 0.00 in 16 W/m2
19:54 51.1 °F 35.8 °F 30.46 in ENE 1.7 mph 11 mph 54% 0.00 in 12 W/m2
19:59 50.7 °F 35.9 °F 30.46 in ENE 2 mph 7 mph 54.8% 0.00 in 9 W/m2
20:04 50.5 °F 36.2 °F 30.46 in East 2.9 mph 8 mph 56% 0.00 in 7 W/m2
20:09 50.2 °F 36.1 °F 30.47 in East 2.9 mph 7 mph 56.4% 0.00 in 5 W/m2
20:14 49.8 °F 35.9 °F 30.47 in ESE 2.6 mph 9 mph 56.8% 0.00 in 0 W/m2
20:19 49.6 °F 36 °F 30.47 in ESE 2 mph 8 mph 57.2% 0.00 in 0 W/m2
20:24 49.4 °F 36.1 °F 30.47 in ESE 1.9 mph 8 mph 58% 0.00 in 0 W/m2
20:29 49.1 °F 36.1 °F 30.47 in East 3.5 mph 9 mph 58.6% 0.00 in 0 W/m2
20:34 48.8 °F 36 °F 30.47 in East 3.6 mph 9 mph 59% 0.00 in 0 W/m2
20:39 48.6 °F 35.9 °F 30.48 in East 1.3 mph 5 mph 59.2% 0.00 in 0 W/m2
20:44 48.4 °F 36 °F 30.48 in East 1.9 mph 5 mph 60% 0.00 in 0 W/m2
20:49 48 °F 35.6 °F 30.48 in East 1.9 mph 5 mph 60% 0.00 in 0 W/m2
20:54 47.7 °F 35.9 °F 30.48 in East 2.3 mph 6 mph 61% 0.00 in 0 W/m2
20:59 47.6 °F 35.7 °F 30.48 in East 1.7 mph 6 mph 61% 0.00 in 0 W/m2
21:04 47.5 °F 35.7 °F 30.49 in East 2.2 mph 5 mph 61.3% 0.00 in 0 W/m2
21:09 47.2 °F 35.7 °F 30.49 in East 2.7 mph 6 mph 62% 0.00 in 0 W/m2
21:14 47.1 °F 35.7 °F 30.49 in East 3.3 mph 7 mph 62.4% 0.00 in 0 W/m2
21:19 46.9 °F 35.8 °F 30.49 in East 2.5 mph 8 mph 63% 0.00 in 0 W/m2
21:24 46.8 °F 35.6 °F 30.50 in ENE 3.3 mph 7 mph 63% 0.00 in 0 W/m2
21:29 46.6 °F 35.8 °F 30.50 in ENE 4.4 mph 8 mph 63.4% 0.00 in 0 W/m2
21:34 46.6 °F 36 °F 30.50 in ENE 4.7 mph 8 mph 64% 0.00 in 0 W/m2
21:39 46.2 °F 35.7 °F 30.50 in ENE 4.1 mph 11 mph 64.2% 0.00 in 0 W/m2
21:44 46 °F 35.8 °F 30.50 in ENE 2.5 mph 7 mph 65% 0.00 in 0 W/m2
21:49 45.8 °F 35.8 °F 30.50 in ENE 3.1 mph 7 mph 65.6% 0.00 in 0 W/m2
21:54 45.7 °F 35.8 °F 30.50 in ESE 3.1 mph 9 mph 66% 0.00 in 0 W/m2
21:59 45.4 °F 35.7 °F 30.50 in ESE 2.4 mph 7 mph 66.4% 0.00 in 0 W/m2
22:04 45.2 °F 35.9 °F 30.50 in ESE 2.9 mph 7 mph 67% 0.00 in 0 W/m2
22:09 45.1 °F 35.8 °F 30.50 in ESE 3.7 mph 7 mph 67.2% 0.00 in 0 W/m2
22:14 44.9 °F 35.7 °F 30.50 in East 2.8 mph 8 mph 67.6% 0.00 in 0 W/m2
22:19 44.8 °F 35.8 °F 30.50 in East 2.2 mph 7 mph 68% 0.00 in 0 W/m2
22:24 44.6 °F 35.6 °F 30.50 in East 3 mph 9 mph 68% 0.00 in 0 W/m2
22:29 44.4 °F 35.4 °F 30.50 in East 2.3 mph 10 mph 68% 0.00 in 0 W/m2
22:34 44.2 °F 35.3 °F 30.50 in ENE 4.8 mph 13 mph 68.2% 0.00 in 0 W/m2
22:39 44.2 °F 35.4 °F 30.50 in ENE 4.3 mph 13 mph 68.6% 0.00 in 0 W/m2
22:44 44.1 °F 35.4 °F 30.50 in ENE 3.9 mph 9 mph 69% 0.00 in 0 W/m2
22:49 44 °F 35.3 °F 30.51 in ENE 3.7 mph 9 mph 69% 0.00 in 0 W/m2
22:54 43.9 °F 35.2 °F 30.51 in ENE 4.1 mph 9 mph 69% 0.00 in 0 W/m2
22:59 43.8 °F 35.1 °F 30.51 in ENE 3.9 mph 9 mph 69% 0.00 in 0 W/m2
23:04 43.5 °F 34.9 °F 30.51 in ENE 2.5 mph 6 mph 69% 0.00 in 0 W/m2
23:09 43.3 °F 34.7 °F 30.51 in ENE 4.5 mph 6 mph 69.2% 0.00 in 0 W/m2
23:14 43.2 °F 34.9 °F 30.51 in ENE 3.3 mph 8 mph 70% 0.00 in 0 W/m2
23:19 43 °F 34.7 °F 30.51 in ENE 4.2 mph 8 mph 70% 0.00 in 0 W/m2
23:24 42.8 °F 34.5 °F 30.51 in ENE 3.5 mph 6 mph 70% 0.00 in 0 W/m2
23:29 42.6 °F 34.3 °F 30.51 in ENE 2.5 mph 7 mph 70% 0.00 in 0 W/m2
23:34 42.4 °F 34.2 °F 30.51 in ENE 2.9 mph 6 mph 70% 0.00 in 0 W/m2
23:39 42.3 °F 34 °F 30.51 in ENE 4.2 mph 8 mph 70% 0.00 in 0 W/m2
23:44 42.1 °F 33.8 °F 30.51 in ENE 2 mph 7 mph 70% 0.00 in 0 W/m2
23:49 42 °F 33.7 °F 30.51 in ENE 2.9 mph 6 mph 70% 0.00 in 0 W/m2
23:54 41.7 °F 33.3 °F 30.51 in ENE 4.6 mph 7 mph 69.6% 0.00 in 0 W/m2
23:58 41.7 °F 33.1 °F 30.51 in ENE 3.2 mph 8 mph 69% 0.00 in 0 W/m2
Bath Spa Weather
Compliments of Weather Underground - 2 mb